Atwood, Kentucky
Current Conditions -  °F | °C
As of 11:16 AM on Wednesday 26 Nov 2014 (Local Time) from KCVG Reporting Station
Haze Haze  
Wind Chill: 30°   Ceiling: 2800
Heat Index: 34°   Visibility: 6mi
Dew Point: 25°   Wind: 5mph
Humidity: 70%   Direction: 40°NE
Pressure: 30.11"   Gusts: NA
Location:  38.8354°N, 84.5143°W
Report Text: KCVG 261616Z 04004KT 6SM HZ SCT012 OVC028 01/M04 A3011 RMK AO2
Loading
Personal Weather Stations






























Interactive Weather Map New forecast layout! Learn more

10-Day Weather Forecast

Advertisements
Track Severe Weather on mobile